Time;durP1;ratioP1;P1;durP2;ratioP2;P2;SDS_P1;SDS_P2;PMS_P1;PMS_P2;Temp;Humidity;BMP_temperature;BMP_pressure;BME280_temperature;BME280_humidity;BME280_pressure;Samples;Min_cycle;Max_cycle;Signal;HPM_P1;HPM_P2
2022/06/24 00:02:18;;;;;;;;;;;;;;;27.90;37.16;100424.16;5072100;28;973;-29
2022/06/24 00:04:44;;;;;;;;;;;;;;;27.86;37.03;100421.03;5062911;28;994;-30
2022/06/24 00:07:14;;;;;;;;;;;;;;;27.89;37.11;100422.50;5056775;28;1120;-29
2022/06/24 00:09:39;;;;;;;;;;;;;;;27.91;37.39;100423.16;5062973;28;994;-30
2022/06/24 00:12:05;;;;;;;;;;;;;;;27.89;37.18;100428.75;5055181;28;1244;-29
2022/06/24 00:14:31;;;;;;;;;;;;;;;27.89;37.22;100433.31;5071905;28;1901;-29
2022/06/24 00:16:57;;;;;;;;;;;;;;;27.91;37.13;100436.66;5069196;28;986;-29
2022/06/24 00:19:23;;;;;;;;;;;;;;;27.88;37.14;100429.78;5064694;28;1111;-29
2022/06/24 00:21:56;;;;;;;;;;;;;;;27.89;36.95;100433.31;5066255;28;2629;-28
2022/06/24 00:24:21;;;;;;;;;;;;;;;27.92;37.19;100436.47;5073174;28;1185;-29
2022/06/24 00:26:47;;;;;;;;;;;;;;;27.90;37.08;100433.13;5067198;28;981;-30
2022/06/24 00:29:18;;;;;;;;;;;;;;;27.94;37.12;100429.00;5070390;28;1199;-27
2022/06/24 00:32:03;;;;;;;;;;;;;;;27.90;37.02;100438.53;5069110;28;1057;-30
2022/06/24 00:34:29;;;;;;;;;;;;;;;27.88;37.19;100432.47;5070316;28;1992;-30
2022/06/24 00:36:54;;;;;;;;;;;;;;;27.85;37.22;100433.72;5069643;28;827;-30
2022/06/24 00:39:19;;;;;;;;;;;;;;;27.84;37.56;100432.03;5069386;28;1012;-28
2022/06/24 00:41:49;;;;;;;;;;;;;;;27.82;37.63;100436.81;5069067;28;1111;-32
2022/06/24 00:44:14;;;;;;;;;;;;;;;27.85;37.83;100432.88;5054177;28;996;-28
2022/06/24 00:46:40;;;;;;;;;;;;;;;27.82;37.70;100422.44;5057260;28;1001;-28
2022/06/24 00:49:05;;;;;;;;;;;;;;;27.82;37.54;100427.84;5050621;28;1002;-30
2022/06/24 00:51:31;;;;;;;;;;;;;;;27.83;37.81;100430.38;5066971;28;2523;-29
2022/06/24 00:53:57;;;;;;;;;;;;;;;27.79;37.70;100418.28;5065640;28;1979;-30
2022/06/24 00:56:24;;;;;;;;;;;;;;;27.82;37.78;100425.16;5066551;28;962;-28
2022/06/24 00:58:59;;;;;;;;;;;;;;;27.81;37.53;100418.91;5071380;28;973;-31
2022/06/24 01:01:27;;;;;;;;;;;;;;;27.82;37.65;100426.00;5068562;28;973;-28
2022/06/24 01:03:53;;;;;;;;;;;;;;;27.84;37.36;100423.09;5068603;28;993;-28
2022/06/24 01:06:19;;;;;;;;;;;;;;;27.86;37.79;100412.94;5068070;28;973;-28
2022/06/24 01:08:44;;;;;;;;;;;;;;;27.81;37.59;100420.78;5072655;28;976;-27
2022/06/24 01:11:09;;;;;;;;;;;;;;;27.84;37.80;100415.00;5071419;28;1072;-30
2022/06/24 01:13:34;;;;;;;;;;;;;;;27.81;37.66;100412.69;5068524;28;1963;-30
2022/06/24 01:16:00;;;;;;;;;;;;;;;27.85;37.65;100413.94;5066709;28;1119;-29
2022/06/24 01:18:25;;;;;;;;;;;;;;;27.86;37.70;100415.63;5073422;28;1056;-28
2022/06/24 01:20:50;;;;;;;;;;;;;;;27.86;37.58;100404.81;5066122;28;2517;-29
2022/06/24 01:23:23;;;;;;;;;;;;;;;27.87;37.32;100409.19;5071490;28;1012;-30
2022/06/24 01:25:48;;;;;;;;;;;;;;;27.87;37.22;100411.91;5072858;28;1073;-30
2022/06/24 01:28:13;;;;;;;;;;;;;;;27.86;37.42;100418.34;5070435;28;833;-28
2022/06/24 01:30:38;;;;;;;;;;;;;;;27.86;37.32;100418.34;5066175;28;1001;-28
2022/06/24 01:33:04;;;;;;;;;;;;;;;27.89;36.98;100419.81;5073233;28;1926;-30
2022/06/24 01:35:29;;;;;;;;;;;;;;;27.85;37.14;100416.66;5068160;28;1009;-28
2022/06/24 01:37:54;;;;;;;;;;;;;;;27.79;37.22;100421.00;5072209;28;1105;-30
2022/06/24 01:40:20;;;;;;;;;;;;;;;27.84;36.93;100413.09;5071674;28;1053;-28
2022/06/24 01:42:45;;;;;;;;;;;;;;;27.78;37.29;100418.47;5071489;28;1045;-31
2022/06/24 01:45:10;;;;;;;;;;;;;;;27.83;37.25;100414.16;5067539;28;1049;-30
2022/06/24 01:47:36;;;;;;;;;;;;;;;27.79;37.22;100415.59;5071052;28;985;-30
2022/06/24 01:50:01;;;;;;;;;;;;;;;27.75;37.51;100417.00;5067890;28;1156;-31
2022/06/24 01:52:26;;;;;;;;;;;;;;;27.76;37.53;100418.66;5066645;28;2556;-31
2022/06/24 01:54:51;;;;;;;;;;;;;;;27.79;37.38;100423.69;5075275;28;1902;-30
2022/06/24 01:57:17;;;;;;;;;;;;;;;27.83;37.24;100416.00;5065392;28;946;-31
2022/06/24 01:59:42;;;;;;;;;;;;;;;27.75;37.20;100415.13;5069462;28;1015;-32
2022/06/24 02:02:07;;;;;;;;;;;;;;;27.77;37.25;100422.19;5070210;28;1016;-31
2022/06/24 02:04:33;;;;;;;;;;;;;;;27.70;37.32;100428.41;5075307;28;1056;-28
2022/06/24 02:06:58;;;;;;;;;;;;;;;27.70;37.36;100427.56;5067418;28;1128;-30
2022/06/24 02:09:23;;;;;;;;;;;;;;;27.70;37.64;100433.81;5065261;28;981;-29
2022/06/24 02:14:32;;;;;;;;;;;;;;;27.74;37.20;100426.16;5061784;28;1898;-31
2022/06/24 02:16:58;;;;;;;;;;;;;;;27.74;37.42;100423.44;5069238;28;978;-28
2022/06/24 02:19:23;;;;;;;;;;;;;;;27.72;37.52;100420.94;5071948;28;1120;-28
2022/06/24 02:21:49;;;;;;;;;;;;;;;27.70;37.68;100419.44;5055159;28;2563;-29
2022/06/24 02:24:15;;;;;;;;;;;;;;;27.73;37.60;100417.19;5071723;28;1210;-29
2022/06/24 02:26:40;;;;;;;;;;;;;;;27.70;37.14;100417.59;5077301;28;1048;-31
2022/06/24 02:29:06;;;;;;;;;;;;;;;27.72;37.15;100422.78;5070978;28;1037;-27
2022/06/24 02:31:31;;;;;;;;;;;;;;;27.76;37.30;100418.66;5072637;28;922;-31
2022/06/24 02:33:58;;;;;;;;;;;;;;;27.79;37.29;100417.44;5075516;28;1910;-29
2022/06/24 02:36:23;;;;;;;;;;;;;;;27.79;37.08;100420.16;5063794;28;1116;-30
2022/06/24 02:38:48;;;;;;;;;;;;;;;27.71;37.21;100424.66;5069513;28;1028;-31
2022/06/24 02:41:13;;;;;;;;;;;;;;;27.76;37.01;100421.34;5072345;28;1108;-29
2022/06/24 02:43:42;;;;;;;;;;;;;;;27.75;37.12;100419.69;5070224;28;981;-29
2022/06/24 02:46:08;;;;;;;;;;;;;;;27.72;37.28;100415.53;5076529;28;1120;-29
2022/06/24 02:48:34;;;;;;;;;;;;;;;27.74;37.40;100415.34;5071043;28;969;-27
2022/06/24 02:51:00;;;;;;;;;;;;;;;27.77;36.94;100419.50;5076509;28;2616;-28
2022/06/24 02:53:26;;;;;;;;;;;;;;;27.77;37.26;100416.78;5058898;28;2113;-32
2022/06/24 02:55:55;;;;;;;;;;;;;;;27.75;36.86;100417.84;5070123;28;1024;-30
2022/06/24 02:58:20;;;;;;;;;;;;;;;27.70;37.48;100427.56;5070682;28;1194;-33
2022/06/24 03:00:45;;;;;;;;;;;;;;;27.70;37.45;100422.16;5070472;28;1295;-28
2022/06/24 03:03:12;;;;;;;;;;;;;;;27.67;37.78;100420.66;5072691;28;1206;-33
2022/06/24 03:05:37;;;;;;;;;;;;;;;27.66;37.57;100432.47;5072269;28;1111;-29
2022/06/24 03:08:03;;;;;;;;;;;;;;;27.67;37.34;100422.50;5077124;28;954;-29
2022/06/24 03:10:28;;;;;;;;;;;;;;;27.62;37.41;100434.75;5064656;28;1048;-31
2022/06/24 03:12:53;;;;;;;;;;;;;;;27.63;37.46;100424.75;5070512;28;1898;-30
2022/06/24 03:15:18;;;;;;;;;;;;;;;27.69;37.53;100421.34;5069600;28;1025;-27
2022/06/24 03:17:44;;;;;;;;;;;;;;;27.68;37.78;100422.34;5071314;28;1504;-30
2022/06/24 03:20:09;;;;;;;;;;;;;;;27.67;37.76;100420.66;5072249;28;1055;-32
2022/06/24 03:22:34;;;;;;;;;;;;;;;27.69;37.63;100423.19;5069884;28;2968;-31
2022/06/24 03:25:00;;;;;;;;;;;;;;;27.71;37.94;100427.34;5067481;28;1192;-31
2022/06/24 03:27:25;;;;;;;;;;;;;;;27.74;37.63;100435.06;5070247;28;977;-31
2022/06/24 03:29:51;;;;;;;;;;;;;;;27.62;38.17;100432.03;5073383;28;992;-28
2022/06/24 03:32:16;;;;;;;;;;;;;;;27.61;38.38;100437.66;5072674;28;1148;-30
2022/06/24 03:34:41;;;;;;;;;;;;;;;27.58;38.29;100440.72;5067051;28;1902;-28
2022/06/24 03:37:07;;;;;;;;;;;;;;;27.45;38.50;100447.69;5075513;28;893;-32
2022/06/24 03:39:32;;;;;;;;;;;;;;;27.18;37.08;100449.25;5063470;28;1012;-30
2022/06/24 03:41:57;;;;;;;;;;;;;;;27.13;36.07;100444.41;5074687;28;1016;-32
2022/06/24 03:44:22;;;;;;;;;;;;;;;26.87;35.20;100449.31;5069458;28;965;-29
2022/06/24 03:46:48;;;;;;;;;;;;;;;26.73;34.56;100444.75;5061035;28;994;-33
2022/06/24 03:49:14;;;;;;;;;;;;;;;26.75;34.17;100443.56;5071787;28;1060;-28
2022/06/24 03:51:39;;;;;;;;;;;;;;;26.44;34.96;100441.91;5064530;28;2581;-31
2022/06/24 03:54:04;;;;;;;;;;;;;;;26.27;34.99;100441.19;5074317;28;1949;-28
2022/06/24 03:56:30;;;;;;;;;;;;;;;26.61;35.37;100445.22;5064537;28;1331;-28
2022/06/24 03:58:55;;;;;;;;;;;;;;;27.00;34.27;100443.22;5075656;28;1121;-30
2022/06/24 04:01:20;;;;;;;;;;;;;;;27.24;33.72;100443.09;5064250;28;1378;-30
2022/06/24 04:03:45;;;;;;;;;;;;;;;27.30;33.59;100449.59;5067876;28;1502;-30
2022/06/24 04:06:11;;;;;;;;;;;;;;;27.41;34.17;100442.84;5065474;28;1177;-30
2022/06/24 04:08:36;;;;;;;;;;;;;;;27.45;34.24;100444.97;5065489;28;1563;-30
2022/06/24 04:11:27;;;;;;;;;;;;;;;27.60;33.87;100449.47;5064332;28;1170;-31
2022/06/24 04:13:53;;;;;;;;;;;;;;;27.67;33.24;100452.22;5058901;28;1894;-28
2022/06/24 04:16:18;;;;;;;;;;;;;;;27.70;33.36;100452.72;5068446;28;1065;-33
2022/06/24 04:18:43;;;;;;;;;;;;;;;27.80;33.22;100456.94;5074691;28;1151;-30
2022/06/24 04:21:12;;;;;;;;;;;;;;;27.84;33.26;100459.06;5060325;28;2000;-30
2022/06/24 04:23:37;;;;;;;;;;;;;;;27.85;33.26;100465.31;5066442;28;1106;-29
2022/06/24 04:26:03;;;;;;;;;;;;;;;27.85;33.48;100465.31;5065183;28;1141;-29
2022/06/24 04:28:28;;;;;;;;;;;;;;;27.94;33.40;100457.91;5064813;28;914;-34
2022/06/24 04:30:53;;;;;;;;;;;;;;;27.92;33.58;100455.41;5071784;28;1079;-31
2022/06/24 04:33:19;;;;;;;;;;;;;;;27.92;33.31;100458.09;5068757;28;1898;-30
2022/06/24 04:35:44;;;;;;;;;;;;;;;28.03;33.26;100456.72;5066658;28;1212;-31
2022/06/24 04:38:09;;;;;;;;;;;;;;;28.05;33.16;100454.66;5057907;28;989;-28
2022/06/24 04:40:35;;;;;;;;;;;;;;;28.08;33.43;100456.13;5063309;28;973;-32
2022/06/24 04:43:00;;;;;;;;;;;;;;;28.08;33.14;100456.13;5062498;28;985;-29
2022/06/24 04:45:26;;;;;;;;;;;;;;;28.05;33.41;100457.38;5066365;28;950;-30
2022/06/24 04:47:51;;;;;;;;;;;;;;;28.06;33.30;100448.19;5065168;28;1204;-30
2022/06/24 04:50:16;;;;;;;;;;;;;;;28.20;32.85;100440.19;5065480;28;1323;-34
2022/06/24 04:52:42;;;;;;;;;;;;;;;28.17;33.20;100444.13;5067307;28;1311;-35
2022/06/24 04:55:07;;;;;;;;;;;;;;;28.17;33.90;100454.09;5067649;28;1975;-30
2022/06/24 04:57:33;;;;;;;;;;;;;;;28.26;33.71;100449.38;5072659;28;1230;-31
2022/06/24 04:59:58;;;;;;;;;;;;;;;28.23;33.96;100451.44;5065808;28;1219;-31
2022/06/24 05:02:23;;;;;;;;;;;;;;;28.27;33.69;100449.19;5073013;28;1188;-31
2022/06/24 05:04:48;;;;;;;;;;;;;;;28.34;33.38;100441.97;5067439;28;1120;-32
2022/06/24 05:07:14;;;;;;;;;;;;;;;28.33;33.65;100442.16;5073032;28;967;-30
2022/06/24 05:09:39;;;;;;;;;;;;;;;28.32;34.05;100462.13;5067372;28;1378;-31
2022/06/24 05:12:04;;;;;;;;;;;;;;;28.29;34.50;100449.84;5074787;28;1487;-31
2022/06/24 05:14:30;;;;;;;;;;;;;;;28.23;34.49;100447.91;5075842;28;1971;-28
2022/06/24 05:16:55;;;;;;;;;;;;;;;28.26;34.29;100447.50;5066685;28;1271;-29
2022/06/24 05:19:21;;;;;;;;;;;;;;;28.20;34.65;100456.41;5075807;28;1196;-29
2022/06/24 05:21:46;;;;;;;;;;;;;;;28.17;34.66;100460.38;5070806;28;2071;-30
2022/06/24 05:24:12;;;;;;;;;;;;;;;28.18;35.25;100455.78;5075130;28;1188;-30
2022/06/24 05:26:37;;;;;;;;;;;;;;;28.08;35.33;100451.56;5073111;28;1437;-31
2022/06/24 05:29:02;;;;;;;;;;;;;;;28.16;35.46;100449.75;5063854;28;1008;-27
2022/06/24 05:31:28;;;;;;;;;;;;;;;28.23;35.67;100459.56;5050421;28;1608;-28
2022/06/24 05:33:53;;;;;;;;;;;;;;;28.20;36.01;100468.06;5070181;28;1980;-27
2022/06/24 05:36:18;;;;;;;;;;;;;;;28.17;36.01;100468.47;5062578;28;1211;-29
2022/06/24 05:38:46;;;;;;;;;;;;;;;28.23;35.87;100462.28;5070612;28;1307;-27
2022/06/24 05:41:11;;;;;;;;;;;;;;;28.23;35.96;100462.28;5073602;28;1231;-29
2022/06/24 05:43:36;;;;;;;;;;;;;;;28.23;36.31;100472.25;5075671;28;1273;-30
2022/06/24 05:46:02;;;;;;;;;;;;;;;28.24;35.98;100463.13;5071784;28;1449;-28
2022/06/24 05:48:28;;;;;;;;;;;;;;;28.15;36.10;100457.00;5072885;28;1203;-29
2022/06/24 05:50:54;;;;;;;;;;;;;;;28.13;36.41;100460.97;5069404;28;2032;-30
2022/06/24 05:56:03;;;;;;;;;;;;;;;28.13;36.05;100464.47;5065684;28;1167;-28
2022/06/24 05:58:28;;;;;;;;;;;;;;;28.14;36.06;100460.75;5064644;28;951;-29
2022/06/24 06:00:56;;;;;;;;;;;;;;;28.08;35.66;100461.53;5066541;28;977;-28
2022/06/24 06:03:22;;;;;;;;;;;;;;;28.34;35.54;100469.00;5064196;28;1028;-34
2022/06/24 06:05:47;;;;;;;;;;;;;;;28.50;35.91;100469.75;5066433;28;1037;-28
2022/06/24 06:08:13;;;;;;;;;;;;;;;28.64;34.97;100467.13;5076704;28;1012;-28
2022/06/24 06:10:38;;;;;;;;;;;;;;;28.68;34.84;100465.66;5070653;28;1195;-28
2022/06/24 06:13:03;;;;;;;;;;;;;;;28.75;34.53;100469.25;5069665;28;1956;-31
2022/06/24 06:15:29;;;;;;;;;;;;;;;28.75;34.70;100477.38;5067742;28;1179;-31
2022/06/24 06:17:55;;;;;;;;;;;;;;;28.76;34.88;100476.31;5070372;28;1293;-30
2022/06/24 06:20:20;;;;;;;;;;;;;;;28.43;33.05;100469.69;5065774;28;2210;-28
2022/06/24 06:22:45;;;;;;;;;;;;;;;28.34;33.19;100477.13;5074469;28;1152;-28
2022/06/24 06:25:10;;;;;;;;;;;;;;;28.66;33.08;100479.41;5071342;28;977;-31
2022/06/24 06:27:37;;;;;;;;;;;;;;;28.85;32.78;100493.25;5069754;28;1044;-29
2022/06/24 06:30:03;;;;;;;;;;;;;;;28.95;32.98;100484.75;5065985;28;948;-28
2022/06/24 06:32:28;;;;;;;;;;;;;;;28.96;33.37;100489.94;5066236;28;982;-29
2022/06/24 06:34:53;;;;;;;;;;;;;;;28.93;33.47;100487.66;5064433;28;1913;-30
2022/06/24 06:37:19;;;;;;;;;;;;;;;29.00;34.07;100493.13;5071230;28;1170;-32
2022/06/24 06:39:44;;;;;;;;;;;;;;;29.03;33.78;100491.91;5063653;28;1009;-30
2022/06/24 06:42:09;;;;;;;;;;;;;;;28.88;34.66;100498.25;5069036;28;1185;-31
2022/06/24 06:44:34;;;;;;;;;;;;;;;28.81;35.27;100494.69;5070412;28;1413;-28
2022/06/24 06:47:00;;;;;;;;;;;;;;;28.91;34.97;100497.84;5071385;28;1196;-28
2022/06/24 06:49:25;;;;;;;;;;;;;;;28.86;35.59;100500.34;5063158;28;1240;-30
2022/06/24 06:51:50;;;;;;;;;;;;;;;28.79;35.97;100502.16;5068294;28;1368;-28
2022/06/24 06:54:16;;;;;;;;;;;;;;;28.99;34.88;100502.28;5070529;28;1901;-29
2022/06/24 06:56:41;;;;;;;;;;;;;;;28.80;34.10;100503.81;5074224;28;1168;-30
2022/06/24 06:59:06;;;;;;;;;;;;;;;28.87;34.29;100503.88;5064342;28;946;-28
2022/06/24 07:01:31;;;;;;;;;;;;;;;28.76;34.39;100505.28;5068148;28;946;-30
2022/06/24 07:03:57;;;;;;;;;;;;;;;29.05;34.06;100503.34;5070562;28;1049;-32
2022/06/24 07:06:23;;;;;;;;;;;;;;;29.00;34.24;100503.97;5061403;28;1505;-33
2022/06/24 07:08:48;;;;;;;;;;;;;;;28.94;34.56;100508.28;5064391;28;946;-29
2022/06/24 07:11:13;;;;;;;;;;;;;;;28.87;35.45;100503.88;5066616;28;994;-29
2022/06/24 07:13:39;;;;;;;;;;;;;;;28.83;35.18;100498.00;5069189;28;1905;-30
2022/06/24 07:16:07;;;;;;;;;;;;;;;28.89;34.76;100490.97;5071158;28;1150;-33
2022/06/24 07:18:33;;;;;;;;;;;;;;;28.90;34.58;100498.03;5067154;28;1175;-28
2022/06/24 07:20:59;;;;;;;;;;;;;;;28.94;34.50;100488.50;5067187;28;1132;-28
2022/06/24 07:23:24;;;;;;;;;;;;;;;29.14;34.07;100487.75;5066498;28;1243;-32
2022/06/24 07:25:49;;;;;;;;;;;;;;;29.26;34.22;100488.00;5072775;28;1278;-31
2022/06/24 07:28:15;;;;;;;;;;;;;;;29.37;33.75;100492.84;5068744;28;1163;-31
2022/06/24 07:30:40;;;;;;;;;;;;;;;29.32;33.51;100482.63;5069910;28;1045;-30
2022/06/24 07:33:05;;;;;;;;;;;;;;;29.29;33.13;100495.72;5063018;28;1985;-28
2022/06/24 07:35:31;;;;;;;;;;;;;;;29.42;33.22;100476.78;5072194;28;1005;-28
2022/06/24 07:37:56;;;;;;;;;;;;;;;29.25;33.47;100480.91;5063463;28;1362;-28
2022/06/24 07:40:21;;;;;;;;;;;;;;;28.94;32.03;100481.22;5065162;28;1104;-33
2022/06/24 07:42:47;;;;;;;;;;;;;;;29.13;32.68;100484.22;5069833;28;969;-28
2022/06/24 07:45:13;;;;;;;;;;;;;;;29.11;32.79;100477.34;5062238;28;1156;-31
2022/06/24 07:47:38;;;;;;;;;;;;;;;29.19;33.19;100480.72;5074322;28;957;-30
2022/06/24 07:50:04;;;;;;;;;;;;;;;29.27;33.56;100476.97;5070774;28;930;-30
2022/06/24 07:52:29;;;;;;;;;;;;;;;29.39;33.63;100484.50;5068431;28;955;-30
2022/06/24 07:57:39;;;;;;;;;;;;;;;29.66;34.30;100477.25;5068843;28;1108;-29
2022/06/24 08:00:04;;;;;;;;;;;;;;;29.58;34.56;100474.72;5070231;28;912;-28
2022/06/24 08:02:29;;;;;;;;;;;;;;;29.53;34.88;100469.09;5047210;28;1194;-33
2022/06/24 08:04:55;;;;;;;;;;;;;;;29.37;35.56;100471.16;5074038;28;1096;-29
2022/06/24 08:07:20;;;;;;;;;;;;;;;29.46;35.36;100475.34;5065463;28;1221;-30
2022/06/24 08:09:45;;;;;;;;;;;;;;;29.48;35.48;100467.00;5064557;28;978;-32
2022/06/24 08:12:11;;;;;;;;;;;;;;;29.61;35.06;100462.69;5064108;28;1016;-28
2022/06/24 08:14:36;;;;;;;;;;;;;;;29.72;35.03;100463.91;5068073;28;1963;-30
2022/06/24 08:17:01;;;;;;;;;;;;;;;29.56;35.45;100457.84;5069201;28;1104;-31
2022/06/24 08:19:27;;;;;;;;;;;;;;;29.73;35.15;100465.59;5066234;28;970;-28
2022/06/24 08:21:52;;;;;;;;;;;;;;;29.52;35.82;100467.41;5069904;28;937;-30
2022/06/24 08:24:17;;;;;;;;;;;;;;;29.46;35.88;100469.91;5068869;28;1022;-29
2022/06/24 08:26:43;;;;;;;;;;;;;;;29.51;36.21;100474.72;5070273;28;1123;-29
2022/06/24 08:29:10;;;;;;;;;;;;;;;29.60;35.90;100474.53;5065471;28;1168;-29
2022/06/24 08:31:36;;;;;;;;;;;;;;;29.61;36.28;100471.66;5066800;28;1227;-29
2022/06/24 08:34:01;;;;;;;;;;;;;;;29.57;36.36;100464.94;5068495;28;1910;-27
2022/06/24 08:36:27;;;;;;;;;;;;;;;29.64;36.26;100465.81;5064898;28;1234;-30
2022/06/24 08:38:53;;;;;;;;;;;;;;;29.47;36.51;100465.34;5067382;28;1222;-27
2022/06/24 08:41:20;;;;;;;;;;;;;;;29.60;36.39;100461.00;5065763;28;1167;-30
2022/06/24 08:43:45;;;;;;;;;;;;;;;29.54;36.41;100452.63;5068634;28;1191;-28
2022/06/24 08:46:10;;;;;;;;;;;;;;;29.43;36.88;100447.81;5050691;28;984;-27
2022/06/24 08:48:35;;;;;;;;;;;;;;;29.51;36.55;100452.22;5061700;28;1166;-30
2022/06/24 08:51:01;;;;;;;;;;;;;;;29.69;35.85;100446.22;5053505;28;1132;-27
2022/06/24 08:53:27;;;;;;;;;;;;;;;29.91;35.73;100444.09;5065742;28;1909;-29
2022/06/24 08:55:52;;;;;;;;;;;;;;;30.06;35.72;100454.72;5068790;28;1017;-29
2022/06/24 08:58:18;;;;;;;;;;;;;;;30.08;35.82;100451.00;5068602;28;989;-33
2022/06/24 09:00:43;;;;;;;;;;;;;;;29.93;36.46;100450.16;5067022;28;1009;-27
2022/06/24 09:03:08;;;;;;;;;;;;;;;29.86;36.50;100438.50;5061958;28;969;-29
2022/06/24 09:05:34;;;;;;;;;;;;;;;29.94;35.85;100427.44;5065091;28;1225;-27
2022/06/24 09:08:06;;;;;;;;;;;;;;;29.89;36.33;100427.22;5059778;28;1180;-28
2022/06/24 09:10:32;;;;;;;;;;;;;;;30.01;35.56;100424.69;5068610;28;1005;-27
2022/06/24 09:12:57;;;;;;;;;;;;;;;30.06;35.81;100422.19;5070258;28;1350;-31
2022/06/24 09:15:22;;;;;;;;;;;;;;;30.00;35.54;100428.47;5065199;28;1898;-28
2022/06/24 09:17:48;;;;;;;;;;;;;;;30.13;35.80;100433.03;5060096;28;1505;-29
2022/06/24 09:20:17;;;;;;;;;;;;;;;30.10;35.85;100430.72;5046606;28;851;-27
2022/06/24 09:22:43;;;;;;;;;;;;;;;30.12;36.10;100434.06;5070864;28;981;-27
2022/06/24 09:25:08;;;;;;;;;;;;;;;30.26;35.62;100436.81;5068279;28;1248;-33
2022/06/24 09:27:34;;;;;;;;;;;;;;;30.22;35.18;100428.25;5066215;28;1231;-29
2022/06/24 09:29:59;;;;;;;;;;;;;;;30.03;35.61;100435.34;5069078;28;1401;-29
2022/06/24 09:32:24;;;;;;;;;;;;;;;29.93;35.90;100433.03;5069674;28;1416;-30
2022/06/24 09:35:08;;;;;;;;;;;;;;;29.90;36.00;100426.19;5060868;28;1969;-29
2022/06/24 09:37:37;;;;;;;;;;;;;;;30.02;35.83;100426.38;5068137;28;1167;-32
2022/06/24 09:40:21;;;;;;;;;;;;;;;30.21;35.35;100426.59;5069438;28;1662;-31
2022/06/24 09:42:53;;;;;;;;;;;;;;;30.14;34.51;100414.88;5074682;28;1259;-30
2022/06/24 09:45:18;;;;;;;;;;;;;;;30.21;35.08;100421.16;5073791;28;1184;-29
2022/06/24 09:47:48;;;;;;;;;;;;;;;30.16;35.10;100413.59;5070912;28;2439;-29
2022/06/24 09:50:13;;;;;;;;;;;;;;;30.10;34.56;100410.91;5072767;28;1240;-30
2022/06/24 09:52:39;;;;;;;;;;;;;;;30.09;34.67;100407.38;5053961;28;1029;-29
2022/06/24 09:55:04;;;;;;;;;;;;;;;30.10;34.71;100417.16;5067610;28;1957;-32
2022/06/24 09:57:30;;;;;;;;;;;;;;;30.14;34.65;100417.59;5070807;28;1152;-31
2022/06/24 10:02:39;;;;;;;;;;;;;;;30.33;34.22;100417.78;5070453;28;1195;-32
2022/06/24 10:05:05;;;;;;;;;;;;;;;30.41;34.12;100415.66;5076615;28;1226;-30
2022/06/24 10:07:31;;;;;;;;;;;;;;;30.43;34.15;100418.16;5048806;28;959;-32
2022/06/24 10:09:57;;;;;;;;;;;;;;;30.34;34.54;100419.44;5077014;28;989;-33
2022/06/24 10:12:22;;;;;;;;;;;;;;;30.60;33.63;100421.22;5074078;28;1251;-30
2022/06/24 10:14:47;;;;;;;;;;;;;;;30.42;34.66;100411.06;5070878;28;1906;-29
2022/06/24 10:17:12;;;;;;;;;;;;;;;30.37;34.27;100411.72;5024781;28;1145;-31
2022/06/24 10:19:38;;;;;;;;;;;;;;;30.38;34.62;100407.13;5077900;28;934;-30
2022/06/24 10:22:03;;;;;;;;;;;;;;;30.48;34.88;100406.69;5064562;28;957;-30
2022/06/24 10:24:38;;;;;;;;;;;;;;;30.54;35.17;100416.66;5068436;28;1235;-30
2022/06/24 10:27:03;;;;;;;;;;;;;;;30.59;34.02;100410.59;5065969;28;1212;-29
2022/06/24 10:29:31;;;;;;;;;;;;;;;30.36;33.68;100409.22;5073077;28;1207;-28
2022/06/24 10:32:00;;;;;;;;;;;;;;;30.33;34.36;100399.59;5063783;28;1326;-28
2022/06/24 10:34:25;;;;;;;;;;;;;;;30.42;33.96;100403.78;5068764;28;1918;-31
2022/06/24 10:37:00;;;;;;;;;;;;;;;30.45;34.12;100399.78;5066630;28;1208;-27
2022/06/24 10:39:26;;;;;;;;;;;;;;;30.45;33.33;100388.94;5069435;28;1271;-28
2022/06/24 10:42:05;;;;;;;;;;;;;;;30.25;33.13;100403.41;5067132;28;1163;-28
2022/06/24 10:44:30;;;;;;;;;;;;;;;30.18;33.74;100400.66;5066049;28;1220;-28
2022/06/24 10:47:04;;;;;;;;;;;;;;;30.24;32.75;100398.19;5060567;28;1111;-28
2022/06/24 10:49:48;;;;;;;;;;;;;;;30.57;29.87;100402.66;5073204;28;1561;-28
2022/06/24 10:52:43;;;;;;;;;;;;;;;30.62;28.41;100389.28;5060617;28;1237;-29
2022/06/24 10:55:17;;;;;;;;;;;;;;;30.63;28.02;100387.41;5027338;28;1906;-32
2022/06/24 10:57:56;;;;;;;;;;;;;;;30.66;27.68;100400.56;5068350;28;1063;-28
2022/06/24 11:00:21;;;;;;;;;;;;;;;30.71;27.99;100398.03;5061568;28;1525;-29
2022/06/24 11:02:50;;;;;;;;;;;;;;;30.76;27.96;100397.38;5066538;28;1253;-31
2022/06/24 11:05:16;;;;;;;;;;;;;;;30.84;27.72;100386.28;5067563;28;1223;-28
2022/06/24 11:07:51;;;;;;;;;;;;;;;30.93;27.66;100386.84;5062332;28;939;-29
2022/06/24 11:10:17;;;;;;;;;;;;;;;31.06;27.23;100388.66;5064670;28;937;-28
2022/06/24 11:12:45;;;;;;;;;;;;;;;31.20;26.67;100396.72;5066488;28;1365;-28
2022/06/24 11:15:10;;;;;;;;;;;;;;;31.21;26.43;100396.50;5049687;28;1918;-28
2022/06/24 11:17:39;;;;;;;;;;;;;;;31.19;26.91;100395.88;5068634;28;994;-31
2022/06/24 11:20:05;;;;;;;;;;;;;;;31.24;26.58;100384.34;5065384;28;1056;-27
2022/06/24 11:22:31;;;;;;;;;;;;;;;31.19;26.52;100392.31;5068854;28;994;-27
2022/06/24 11:24:56;;;;;;;;;;;;;;;31.27;26.66;100383.91;5051076;28;1179;-29
2022/06/24 11:27:21;;;;;;;;;;;;;;;31.42;26.03;100386.34;5065959;28;916;-28
2022/06/24 11:29:56;;;;;;;;;;;;;;;31.40;26.43;100378.41;5059737;28;950;-27
2022/06/24 11:32:22;;;;;;;;;;;;;;;31.31;26.54;100377.00;5066100;28;1168;-28
2022/06/24 11:34:48;;;;;;;;;;;;;;;31.43;26.27;100370.88;5073190;28;1996;-28
2022/06/24 11:37:14;;;;;;;;;;;;;;;31.32;26.91;100378.66;5066864;28;1036;-27
2022/06/24 11:39:39;;;;;;;;;;;;;;;31.26;27.28;100372.19;5050424;28;1182;-28
2022/06/24 11:42:04;;;;;;;;;;;;;;;31.28;26.77;100361.13;5069464;28;1227;-27
2022/06/24 11:44:33;;;;;;;;;;;;;;;31.57;26.88;100363.41;5065498;28;1228;-27
2022/06/24 11:46:58;;;;;;;;;;;;;;;31.86;26.83;100361.06;5065784;28;1129;-31
2022/06/24 11:49:24;;;;;;;;;;;;;;;31.77;26.79;100368.66;5066959;28;1199;-28
2022/06/24 11:51:49;;;;;;;;;;;;;;;31.72;26.82;100366.63;5069396;28;900;-30
2022/06/24 11:54:16;;;;;;;;;;;;;;;31.78;25.52;100351.31;5056410;28;1909;-29
2022/06/24 11:56:42;;;;;;;;;;;;;;;31.85;24.79;100348.50;5066864;28;1167;-31
2022/06/24 11:59:08;;;;;;;;;;;;;;;31.70;25.17;100357.03;5070287;28;925;-30
2022/06/24 12:01:33;;;;;;;;;;;;;;;31.63;25.58;100367.97;5067856;28;1215;-28
2022/06/24 12:04:02;;;;;;;;;;;;;;;31.64;25.91;100350.59;5052591;28;977;-28
2022/06/24 12:06:28;;;;;;;;;;;;;;;31.74;25.92;100358.25;5067419;28;1163;-27
2022/06/24 12:08:53;;;;;;;;;;;;;;;31.60;27.55;100366.53;5070883;28;1251;-32
2022/06/24 12:11:19;;;;;;;;;;;;;;;31.51;27.61;100365.97;5049987;28;1125;-29
2022/06/24 12:13:57;;;;;;;;;;;;;;;31.69;27.52;100364.38;5072802;28;1897;-28
2022/06/24 12:16:26;;;;;;;;;;;;;;;31.71;27.59;100370.41;5046578;28;1235;-28
2022/06/24 12:18:51;;;;;;;;;;;;;;;31.63;28.10;100381.56;5063484;28;1230;-29
2022/06/24 12:21:23;;;;;;;;;;;;;;;31.52;28.41;100364.94;5061283;28;1120;-28
2022/06/24 12:23:48;;;;;;;;;;;;;;;31.53;28.98;100377.47;5063774;28;1084;-31
2022/06/24 12:26:17;;;;;;;;;;;;;;;31.63;28.87;100376.94;5073001;28;1092;-29
2022/06/24 12:28:43;;;;;;;;;;;;;;;31.63;28.72;100379.66;5068589;28;1084;-30
2022/06/24 12:31:09;;;;;;;;;;;;;;;31.81;27.52;100379.94;5066934;28;1215;-29
2022/06/24 12:33:43;;;;;;;;;;;;;;;31.63;27.43;100385.09;5067446;28;1942;-29
2022/06/24 12:36:10;;;;;;;;;;;;;;;31.68;27.60;100389.06;5062971;28;1279;-28
2022/06/24 12:38:39;;;;;;;;;;;;;;;31.60;27.64;100391.00;5065579;28;1017;-30
2022/06/24 12:41:05;;;;;;;;;;;;;;;31.53;27.45;100390.25;5063839;28;1021;-32
2022/06/24 12:43:30;;;;;;;;;;;;;;;31.55;28.30;100384.56;5072677;28;1144;-31
2022/06/24 12:45:57;;;;;;;;;;;;;;;31.53;27.74;100376.66;5046082;28;1521;-28
2022/06/24 12:51:06;;;;;;;;;;;;;;;31.35;27.42;100377.34;5068365;28;1185;-31
2022/06/24 12:53:32;;;;;;;;;;;;;;;31.62;27.19;100369.88;5071468;28;1972;-29
2022/06/24 12:55:57;;;;;;;;;;;;;;;31.72;26.76;100365.78;5066712;28;1160;-28
2022/06/24 12:58:23;;;;;;;;;;;;;;;31.82;25.73;100363.41;5065905;28;1048;-32